createdAt,value
2023-03-26T00:00:16.587Z,9.931915
2023-03-26T00:05:15.874Z,10.918881
2023-03-26T00:10:15.882Z,11.137762
2023-03-26T00:15:16.246Z,11.002797
2023-03-26T00:20:16.597Z,10.950000
2023-03-26T00:25:16.908Z,10.201439
2023-03-26T00:30:15.838Z,10.252857
2023-03-26T00:35:16.779Z,10.016788
2023-03-26T00:40:16.297Z,10.980714
2023-03-26T00:45:15.795Z,11.328369
2023-03-26T00:50:15.738Z,11.504225
2023-03-26T00:55:16.240Z,11.315385
2023-03-26T01:00:16.985Z,10.060145
2023-03-26T01:05:16.764Z,10.034752
2023-03-26T01:10:16.122Z,9.275182
2023-03-26T01:15:16.651Z,9.183942
2023-03-26T01:20:15.660Z,9.686232
2023-03-26T01:25:15.833Z,10.040580
2023-03-26T01:30:16.600Z,10.056934
2023-03-26T01:35:15.886Z,9.740000
2023-03-26T01:40:16.005Z,9.345714
2023-03-26T01:45:16.669Z,9.129286
2023-03-26T01:50:15.855Z,9.379286
2023-03-26T01:55:15.880Z,8.962319
2023-03-26T02:00:17.293Z,8.919424
2023-03-26T02:05:15.888Z,8.910791
2023-03-26T02:10:16.722Z,8.807971
2023-03-26T02:15:15.686Z,8.704225
2023-03-26T02:20:15.644Z,8.688112
2023-03-26T02:25:15.639Z,8.605594
2023-03-26T02:30:15.562Z,8.473611
2023-03-26T02:35:16.111Z,8.445833
2023-03-26T02:40:16.097Z,8.455944
2023-03-26T02:45:16.269Z,8.273427
2023-03-26T02:50:16.852Z,8.214685
2023-03-26T02:55:17.559Z,8.116084
2023-03-26T03:00:16.258Z,7.995804
2023-03-26T03:05:16.107Z,7.886111
2023-03-26T03:10:15.924Z,7.769231
2023-03-26T03:15:16.217Z,7.621528
2023-03-26T03:20:15.890Z,7.474825
2023-03-26T03:25:15.825Z,7.330070
2023-03-26T03:30:15.949Z,7.202778
2023-03-26T03:35:16.895Z,7.150000
2023-03-26T03:40:15.711Z,7.188811
2023-03-26T03:45:16.355Z,7.279167
2023-03-26T03:50:15.928Z,7.201399
2023-03-26T03:55:16.380Z,7.207534
2023-03-26T04:00:15.980Z,7.198611
2023-03-26T04:05:16.054Z,6.858333
2023-03-26T04:10:16.355Z,6.879861
2023-03-26T04:15:15.626Z,7.038889
2023-03-26T04:20:16.124Z,7.170139
2023-03-26T04:25:15.673Z,7.109722
2023-03-26T04:30:17.016Z,6.955556
2023-03-26T04:35:16.684Z,6.874306
2023-03-26T04:40:16.647Z,6.806944
2023-03-26T04:45:15.700Z,6.719718
2023-03-26T04:50:16.235Z,6.700000
2023-03-26T04:55:15.608Z,6.700000
2023-03-26T05:00:15.891Z,6.734266
2023-03-26T05:05:16.580Z,6.793793
2023-03-26T05:10:15.572Z,6.888356
2023-03-26T05:15:16.057Z,6.798630
2023-03-26T05:20:15.998Z,6.673649
2023-03-26T05:25:15.689Z,6.197959
2023-03-26T05:30:16.018Z,6.208054
2023-03-26T05:35:16.105Z,6.452740
2023-03-26T05:40:16.172Z,6.677703
2023-03-26T05:45:16.851Z,6.537241
2023-03-26T05:50:16.231Z,6.412414
2023-03-26T05:55:15.915Z,6.417808
2023-03-26T06:00:16.250Z,6.341096
2023-03-26T06:05:15.773Z,6.299320
2023-03-26T06:10:17.939Z,6.297945
2023-03-26T06:15:15.750Z,6.236054
2023-03-26T06:20:16.809Z,6.317123
2023-03-26T06:25:16.352Z,6.443836
2023-03-26T06:30:16.023Z,6.453425
2023-03-26T06:35:17.027Z,6.157746
2023-03-26T06:40:16.822Z,6.011888
2023-03-26T06:45:18.430Z,5.970423
2023-03-26T06:50:16.482Z,5.926761
2023-03-26T06:55:16.584Z,5.970833
2023-03-26T07:00:16.663Z,5.934965
2023-03-26T07:05:16.292Z,6.040690
2023-03-26T07:10:15.907Z,5.997222
2023-03-26T07:15:16.600Z,5.977622
2023-03-26T07:20:16.689Z,6.095070
2023-03-26T07:25:16.507Z,5.959441
2023-03-26T07:30:16.194Z,6.040141
2023-03-26T07:35:16.321Z,6.037324
2023-03-26T07:40:16.286Z,6.086620
2023-03-26T07:45:15.644Z,5.993662
2023-03-26T07:50:18.149Z,5.987324
2023-03-26T07:55:16.049Z,6.022917
2023-03-26T08:00:17.072Z,5.915385
2023-03-26T08:05:15.691Z,6.005594
2023-03-26T08:10:21.050Z,6.091549
2023-03-26T08:15:16.345Z,6.169444
2023-03-26T08:20:15.587Z,6.054861
2023-03-26T08:25:16.314Z,5.935417
2023-03-26T08:30:16.327Z,5.795804
2023-03-26T08:35:15.732Z,5.737762
2023-03-26T08:40:17.022Z,5.749650
2023-03-26T08:45:16.103Z,5.831690
2023-03-26T08:50:15.875Z,5.862676
2023-03-26T08:55:16.498Z,5.918440
2023-03-26T09:00:16.686Z,5.901429
2023-03-26T09:05:15.666Z,5.785106
2023-03-26T09:10:15.830Z,5.723571
2023-03-26T09:15:16.056Z,5.667857
2023-03-26T09:20:15.645Z,5.696403
2023-03-26T09:25:15.945Z,5.658571
2023-03-26T09:30:17.176Z,5.591489
2023-03-26T09:35:15.743Z,5.539286
2023-03-26T09:40:15.973Z,5.545390
2023-03-26T09:45:16.028Z,5.568571
2023-03-26T09:50:15.913Z,5.417021
2023-03-26T09:55:15.838Z,5.336429
2023-03-26T10:00:16.594Z,5.294326
2023-03-26T10:05:20.670Z,5.238298
2023-03-26T10:10:16.404Z,5.195775
2023-03-26T10:15:15.898Z,5.195745
2023-03-26T10:20:17.371Z,5.188811
2023-03-26T10:25:15.876Z,5.108633
2023-03-26T10:30:16.241Z,5.105714
2023-03-26T10:35:16.355Z,5.170000
2023-03-26T10:40:16.054Z,5.243972
2023-03-26T10:45:16.431Z,5.244366
2023-03-26T10:50:17.149Z,5.252857
2023-03-26T10:55:16.485Z,5.229577
2023-03-26T11:00:15.855Z,5.202817
2023-03-26T11:05:16.439Z,5.106294
2023-03-26T11:10:17.122Z,5.225175
2023-03-26T11:15:15.650Z,5.180986
2023-03-26T11:20:17.169Z,5.062937
2023-03-26T11:25:15.657Z,5.110490
2023-03-26T11:30:19.639Z,5.115603
2023-03-26T11:35:15.821Z,5.083688
2023-03-26T11:40:16.794Z,4.924476
2023-03-26T11:45:17.332Z,4.969014
2023-03-26T11:50:16.175Z,5.094326
2023-03-26T11:55:17.332Z,5.026241
2023-03-26T12:00:16.434Z,4.974126
2023-03-26T12:05:15.801Z,4.958621
2023-03-26T12:10:19.416Z,5.027083
2023-03-26T12:15:15.601Z,4.906993
2023-03-26T12:20:16.577Z,4.958741
2023-03-26T12:25:15.853Z,4.763830
2023-03-26T12:30:17.065Z,4.766434
2023-03-26T12:35:16.968Z,4.778472
2023-03-26T12:40:19.397Z,5.077397
2023-03-26T12:45:16.195Z,5.166897
2023-03-26T12:50:16.179Z,5.375342
2023-03-26T12:55:16.064Z,5.220000
2023-03-26T13:00:16.216Z,5.367857
2023-03-26T13:05:16.498Z,5.090780
2023-03-26T13:10:15.817Z,5.358156
2023-03-26T13:15:17.159Z,5.578014
2023-03-26T13:20:17.255Z,5.540559
2023-03-26T13:25:16.825Z,5.844056
2023-03-26T13:30:15.819Z,5.570423
2023-03-26T13:35:16.698Z,5.543662
2023-03-26T13:40:15.877Z,5.692254
2023-03-26T13:45:16.767Z,5.574126
2023-03-26T13:50:16.261Z,5.846207
2023-03-26T13:55:16.217Z,5.603472
2023-03-26T14:00:15.904Z,5.560274
2023-03-26T14:05:16.864Z,5.819310
2023-03-26T14:10:16.571Z,5.760690
2023-03-26T14:15:16.247Z,5.564336
2023-03-26T14:20:24.618Z,5.723239
2023-03-26T14:25:30.351Z,5.497887
2023-03-26T14:30:16.428Z,5.567606
2023-03-26T14:35:16.257Z,5.292908
2023-03-26T14:40:16.132Z,5.357447
2023-03-26T14:45:16.881Z,5.273050
2023-03-26T14:50:16.016Z,5.251773
2023-03-26T14:55:15.808Z,5.314789
2023-03-26T15:00:16.352Z,5.318310
2023-03-26T15:05:15.996Z,5.427273
2023-03-26T15:10:16.325Z,5.553901
2023-03-26T15:15:17.146Z,5.535461
2023-03-26T15:20:15.873Z,5.644681
2023-03-26T15:25:16.211Z,5.390780
2023-03-26T15:30:16.530Z,5.486525
2023-03-26T15:35:16.234Z,5.990909
2023-03-26T15:40:16.883Z,6.295804
2023-03-26T15:45:15.866Z,6.032394
2023-03-26T15:50:16.787Z,6.365468
2023-03-26T15:55:16.878Z,6.547857
2023-03-26T16:00:17.087Z,6.237762
2023-03-26T16:05:16.005Z,5.753571
2023-03-26T16:10:15.854Z,5.856115
2023-03-26T16:15:15.624Z,5.878102
2023-03-26T16:20:16.102Z,6.142647
2023-03-26T16:25:26.932Z,6.450370
2023-03-26T16:30:15.598Z,6.733571
2023-03-26T16:35:16.373Z,6.572340
2023-03-26T16:40:16.725Z,7.323741
2023-03-26T16:45:16.522Z,6.946429
2023-03-26T16:50:16.177Z,7.070139
2023-03-26T16:55:15.683Z,7.573611
2023-03-26T17:00:17.669Z,7.438028
2023-03-26T17:05:16.156Z,7.492958
2023-03-26T17:10:15.773Z,6.883688
2023-03-26T17:15:16.258Z,6.671631
2023-03-26T17:20:16.503Z,7.359859
2023-03-26T17:25:15.940Z,7.073050
2023-03-26T17:30:16.387Z,7.350000
2023-03-26T17:35:17.125Z,6.633103
2023-03-26T17:40:16.332Z,6.953472
2023-03-26T17:45:16.410Z,7.367361
2023-03-26T17:50:15.878Z,7.811111
2023-03-26T17:55:17.630Z,8.617483
2023-03-26T18:00:15.744Z,8.516901
2023-03-26T18:05:16.740Z,8.176596
2023-03-26T18:10:16.015Z,7.344366
2023-03-26T18:15:15.472Z,7.471631
2023-03-26T18:20:16.309Z,7.983099
2023-03-26T18:25:15.944Z,8.378322
2023-03-26T18:30:15.874Z,7.550694
2023-03-26T18:35:15.830Z,7.983217
2023-03-26T18:40:16.045Z,7.838462
2023-03-26T18:45:15.873Z,7.919444
2023-03-26T18:50:16.243Z,7.744286
2023-03-26T18:55:17.099Z,8.144681
2023-03-26T19:00:16.617Z,8.220423
2023-03-26T19:05:16.868Z,7.985211
2023-03-26T19:10:15.831Z,8.800000
2023-03-26T19:15:15.662Z,9.187234
2023-03-26T19:20:17.072Z,8.366667
2023-03-26T19:25:17.048Z,8.475887
2023-03-26T19:30:15.694Z,8.247183
2023-03-26T19:35:15.886Z,8.668794
2023-03-26T19:40:17.098Z,8.289437
2023-03-26T19:45:15.688Z,8.628671
2023-03-26T19:50:16.432Z,8.451049
2023-03-26T19:55:15.736Z,8.933566
2023-03-26T20:00:16.697Z,8.502143
2023-03-26T20:05:16.572Z,8.390780
2023-03-26T20:10:15.568Z,8.466901
2023-03-26T20:15:19.404Z,8.080556
2023-03-26T20:20:17.206Z,8.323611
2023-03-26T20:25:15.498Z,8.531724
2023-03-26T20:30:22.286Z,8.076761
2023-03-26T20:35:15.996Z,8.087324
2023-03-26T20:40:16.642Z,8.112766
2023-03-26T20:45:16.148Z,9.176056
2023-03-26T20:50:16.090Z,9.885915
2023-03-26T20:55:16.757Z,9.375000
2023-03-26T21:00:16.235Z,9.369014
2023-03-26T21:05:16.716Z,9.165035
2023-03-26T21:10:17.315Z,9.768531
2023-03-26T21:15:23.448Z,10.004795
2023-03-26T21:20:16.696Z,10.115646
2023-03-26T21:25:16.988Z,9.893151
2023-03-26T21:30:16.074Z,9.400694
2023-03-26T21:35:16.616Z,9.277778
2023-03-26T21:40:17.168Z,9.374648
2023-03-26T21:45:17.171Z,9.919014
2023-03-26T21:50:17.025Z,9.818571
2023-03-26T21:55:16.037Z,9.630556
2023-03-26T22:00:15.888Z,9.696503
2023-03-26T22:05:16.740Z,9.654610
2023-03-26T22:10:16.643Z,9.962676
2023-03-26T22:15:16.692Z,9.365493
2023-03-26T22:20:20.631Z,9.258571
2023-03-26T22:25:15.956Z,10.054225
2023-03-26T22:30:15.634Z,9.935252
2023-03-26T22:35:16.095Z,10.077536
2023-03-26T22:40:15.894Z,10.617606
2023-03-26T22:45:15.999Z,9.823741
2023-03-26T22:50:16.382Z,9.924460
2023-03-26T22:55:15.614Z,10.300714
2023-03-26T23:00:15.872Z,10.717021
2023-03-26T23:05:15.974Z,9.840000
2023-03-26T23:10:16.051Z,9.647794
2023-03-26T23:15:16.536Z,10.130435
2023-03-26T23:20:16.092Z,10.876596
2023-03-26T23:25:15.723Z,9.778102
2023-03-26T23:30:16.742Z,10.390141
2023-03-26T23:35:16.429Z,10.622535
2023-03-26T23:40:16.337Z,10.473944
2023-03-26T23:45:15.758Z,10.677465
2023-03-26T23:50:16.748Z,10.529167
2023-03-26T23:55:16.692Z,10.123944
